Time;durP1;ratioP1;P1;durP2;ratioP2;P2;SDS_P1;SDS_P2;PMS_P1;PMS_P2;Temp;Humidity;BMP_temperature;BMP_pressure;BME280_temperature;BME280_humidity;BME280_pressure;Samples;Min_cycle;Max_cycle;Signal;HPM_P1;HPM_P2
2022/08/08 00:02:03;;;;;;;11.50;8.70;;;15.70;99.90;;;;;;5066313;28;20291;-73
2022/08/08 00:05:10;;;;;;;14.10;9.00;;;15.60;99.90;;;;;;5065442;28;20390;-74
2022/08/08 00:07:46;;;;;;;12.07;8.63;;;15.60;99.90;;;;;;5065369;28;20230;-72
2022/08/08 00:10:24;;;;;;;15.20;9.27;;;15.60;99.90;;;;;;5068687;28;20313;-73
2022/08/08 00:13:18;;;;;;;14.87;9.07;;;15.60;99.90;;;;;;5067098;28;20218;-74
2022/08/08 00:16:08;;;;;;;13.53;9.07;;;15.50;99.90;;;;;;5066132;28;20212;-73
2022/08/08 00:18:47;;;;;;;10.80;9.00;;;15.50;99.90;;;;;;5064380;28;20216;-73
2022/08/08 00:21:22;;;;;;;11.37;8.70;;;15.50;99.90;;;;;;5065695;28;20211;-74
2022/08/08 00:24:01;;;;;;;12.33;9.03;;;15.40;99.90;;;;;;5068854;28;20223;-73
2022/08/08 00:26:35;;;;;;;11.77;9.13;;;15.40;99.90;;;;;;5064973;28;20215;-73
2022/08/08 00:29:31;;;;;;;14.47;9.20;;;15.40;99.90;;;;;;5067399;28;20255;-73
2022/08/08 00:32:29;;;;;;;13.53;9.77;;;15.40;99.90;;;;;;5054004;28;20217;-73
2022/08/08 00:35:19;;;;;;;14.33;9.43;;;15.40;99.90;;;;;;5063010;28;20214;-74
2022/08/08 00:38:31;;;;;;;13.70;8.93;;;15.30;99.90;;;;;;5068193;28;20746;-74
2022/08/08 00:41:42;;;;;;;11.27;8.90;;;15.30;99.90;;;;;;5063604;28;20649;-73
2022/08/08 00:44:34;;;;;;;14.43;10.27;;;15.30;99.90;;;;;;5064831;28;20303;-74
2022/08/08 00:47:16;;;;;;;15.80;10.53;;;15.20;99.90;;;;;;5062966;28;20537;-73
2022/08/08 00:50:20;;;;;;;16.50;9.27;;;15.20;99.90;;;;;;5065604;28;20266;-74
2022/08/08 00:53:32;;;;;;;13.37;8.83;;;15.20;99.90;;;;;;5065424;28;20232;-73
2022/08/08 00:56:48;;;;;;;15.93;8.77;;;15.20;99.90;;;;;;5068441;28;20219;-74
2022/08/08 00:59:32;;;;;;;14.93;9.43;;;15.20;99.90;;;;;;5066591;28;20208;-73
2022/08/08 01:02:45;;;;;;;16.83;9.60;;;15.10;99.90;;;;;;5061117;28;20683;-73
2022/08/08 01:05:57;;;;;;;14.07;9.93;;;15.10;99.90;;;;;;5066014;28;20193;-72
2022/08/08 01:09:00;;;;;;;16.87;9.93;;;15.10;99.90;;;;;;5063412;28;20213;-73
2022/08/08 01:12:40;;;;;;;12.63;8.67;;;15.10;99.90;;;;;;5065452;28;20291;-74
2022/08/08 01:15:45;;;;;;;12.60;9.20;;;15.10;99.90;;;;;;5036826;28;20214;-73
2022/08/08 01:19:04;;;;;;;12.07;9.33;;;15.00;99.90;;;;;;5065201;28;20216;-76
2022/08/08 01:22:17;;;;;;;11.63;8.13;;;15.00;99.90;;;;;;5034252;28;20208;-73
2022/08/08 01:25:00;;;;;;;14.90;8.30;;;15.00;99.90;;;;;;5062489;28;20208;-73
2022/08/08 01:28:08;;;;;;;12.10;9.10;;;14.90;99.90;;;;;;5064717;28;20204;-74
2022/08/08 01:31:10;;;;;;;10.77;8.30;;;15.00;99.90;;;;;;5061626;28;20696;-74
2022/08/08 01:34:16;;;;;;;12.57;8.43;;;14.90;99.90;;;;;;5062785;28;20216;-73
2022/08/08 01:36:58;;;;;;;12.93;8.30;;;14.90;99.90;;;;;;5064104;28;20228;-74
2022/08/08 01:39:41;;;;;;;14.10;9.53;;;14.80;99.90;;;;;;5065174;28;20259;-74
2022/08/08 01:42:45;;;;;;;15.53;9.20;;;14.90;99.90;;;;;;5065778;28;20841;-74
2022/08/08 01:45:47;;;;;;;11.73;8.47;;;14.80;99.90;;;;;;5064430;28;20249;-73
2022/08/08 01:49:10;;;;;;;12.03;8.47;;;14.80;99.90;;;;;;5062185;28;20220;-72
2022/08/08 01:52:22;;;;;;;10.17;8.37;;;14.80;99.90;;;;;;5060501;28;20216;-73
2022/08/08 01:55:17;;;;;;;9.87;7.97;;;14.70;99.90;;;;;;5064056;28;21003;-74
2022/08/08 01:58:20;;;;;;;11.33;7.50;;;14.70;99.90;;;;;;5063662;28;20655;-74
2022/08/08 02:01:18;;;;;;;9.83;7.83;;;14.70;99.90;;;;;;5063555;28;20199;-74
2022/08/08 02:04:09;;;;;;;9.33;7.73;;;14.70;99.90;;;;;;5064729;28;20235;-73
2022/08/08 02:07:05;;;;;;;10.43;7.67;;;14.60;99.90;;;;;;5062159;28;20572;-73
2022/08/08 02:10:01;;;;;;;11.63;8.13;;;14.60;99.90;;;;;;5063470;28;21040;-72
2022/08/08 02:12:56;;;;;;;11.47;8.10;;;14.60;99.90;;;;;;5063963;28;20211;-74
2022/08/08 02:15:34;;;;;;;14.67;8.00;;;14.50;99.90;;;;;;5064273;28;20639;-74
2022/08/08 02:18:30;;;;;;;10.50;8.43;;;14.50;99.90;;;;;;5064984;28;20724;-74
2022/08/08 02:24:18;;;;;;;9.13;7.53;;;14.40;99.90;;;;;;5061644;28;20196;-74
2022/08/08 02:26:49;;;;;;;9.03;8.00;;;14.30;99.90;;;;;;5064182;28;21039;-73
2022/08/08 02:29:59;;;;;;;10.03;7.70;;;14.40;99.90;;;;;;5065261;28;20235;-74
2022/08/08 02:32:49;;;;;;;8.97;7.67;;;14.30;99.90;;;;;;5069126;28;20274;-73
2022/08/08 02:35:30;;;;;;;11.47;8.60;;;;;;;;;;5069157;28;20212;-73
2022/08/08 02:38:41;;;;;;;11.57;8.03;;;14.30;99.90;;;;;;5067921;28;20310;-73
2022/08/08 02:41:31;;;;;;;12.00;7.70;;;14.20;99.90;;;;;;5065340;28;20235;-74
2022/08/08 02:44:43;;;;;;;9.93;7.40;;;14.20;99.90;;;;;;5067571;28;20216;-73
2022/08/08 02:47:56;;;;;;;9.93;7.70;;;14.10;99.90;;;;;;5068338;28;20219;-73
2022/08/08 02:50:57;;;;;;;12.17;8.10;;;14.10;99.90;;;;;;5068218;28;20757;-73
2022/08/08 02:54:01;;;;;;;12.13;8.50;;;14.00;99.90;;;;;;5068555;28;20246;-74
2022/08/08 02:57:06;;;;;;;11.70;7.47;;;13.90;99.90;;;;;;5066064;28;20300;-74
2022/08/08 03:00:22;;;;;;;12.83;8.30;;;13.90;99.90;;;;;;5069674;28;20591;-74
2022/08/08 03:03:16;;;;;;;12.33;8.80;;;13.80;99.90;;;;;;5065740;28;20240;-74
2022/08/08 03:06:36;;;;;;;13.47;9.30;;;13.80;99.90;;;;;;5068716;28;21061;-73
2022/08/08 03:09:43;;;;;;;13.47;8.30;;;13.80;99.90;;;;;;5062779;28;20420;-73
2022/08/08 03:12:15;;;;;;;12.43;8.60;;;13.70;99.90;;;;;;5065749;28;20298;-74
2022/08/08 03:15:14;;;;;;;10.37;8.03;;;13.70;99.90;;;;;;5064781;28;21013;-74
2022/08/08 03:18:24;;;;;;;14.97;8.77;;;13.70;99.90;;;;;;5067255;28;20739;-74
2022/08/08 03:20:57;;;;;;;10.70;8.07;;;13.70;99.90;;;;;;5062571;28;20222;-74
2022/08/08 03:23:24;;;;;;;12.50;8.03;;;13.70;99.90;;;;;;5066077;28;20282;-73
2022/08/08 03:26:15;;;;;;;14.60;8.73;;;13.80;99.90;;;;;;5066925;28;20212;-74
2022/08/08 03:28:53;;;;;;;9.90;7.77;;;13.80;99.90;;;;;;5068216;28;20575;-74
2022/08/08 03:34:28;;;;;;;11.77;8.60;;;13.80;99.90;;;;;;5065477;28;20298;-75
2022/08/08 03:36:56;;;;;;;10.30;7.80;;;13.80;99.90;;;;;;5063549;28;20299;-74
2022/08/08 03:39:22;;;;;;;9.73;7.63;;;13.80;99.90;;;;;;5068066;28;20207;-73
2022/08/08 03:41:50;;;;;;;13.20;8.33;;;13.80;99.90;;;;;;5062421;28;20212;-74
2022/08/08 03:44:36;;;;;;;11.43;7.80;;;13.80;99.90;;;;;;5068002;28;20208;-73
2022/08/08 03:47:04;;;;;;;12.70;7.97;;;13.80;99.90;;;;;;5065939;28;20239;-73
2022/08/08 03:49:47;;;;;;;10.47;8.33;;;13.80;99.90;;;;;;5067252;28;20323;-73
2022/08/08 03:52:29;;;;;;;13.40;8.13;;;13.80;99.90;;;;;;5068123;28;20207;-73
2022/08/08 03:54:57;;;;;;;12.53;8.10;;;13.80;99.90;;;;;;5059877;28;20295;-74
2022/08/08 03:57:50;;;;;;;11.70;7.83;;;13.70;99.90;;;;;;5066482;28;20717;-74
2022/08/08 04:00:37;;;;;;;10.27;7.70;;;13.70;99.90;;;;;;5063257;28;20208;-73
2022/08/08 04:03:35;;;;;;;13.67;7.83;;;13.70;99.90;;;;;;5061770;28;20747;-73
2022/08/08 04:06:22;;;;;;;9.03;6.90;;;13.70;99.90;;;;;;5067731;28;20294;-74
2022/08/08 04:08:49;;;;;;;11.27;7.40;;;13.70;99.90;;;;;;5062148;28;20260;-73
2022/08/08 04:11:16;;;;;;;9.33;7.20;;;13.70;99.90;;;;;;5066199;28;20240;-74
2022/08/08 04:13:49;;;;;;;12.47;7.17;;;13.70;99.90;;;;;;5065252;28;20203;-73
2022/08/08 04:16:36;;;;;;;10.77;7.60;;;13.70;99.90;;;;;;5065594;28;20207;-74
2022/08/08 04:19:07;;;;;;;10.43;7.87;;;13.70;99.90;;;;;;5066706;28;20217;-73
2022/08/08 04:21:49;;;;;;;12.07;7.47;;;13.70;99.90;;;;;;5066942;28;20215;-72
2022/08/08 04:24:16;;;;;;;12.53;8.00;;;13.70;99.90;;;;;;5066867;28;20266;-73
2022/08/08 04:26:55;;;;;;;14.33;7.20;;;13.70;99.90;;;;;;5065936;28;20266;-72
2022/08/08 04:29:25;;;;;;;11.80;7.70;;;13.70;99.90;;;;;;5063800;28;21105;-74
2022/08/08 04:31:52;;;;;;;11.03;7.70;;;13.70;99.90;;;;;;5065710;28;20728;-73
2022/08/08 04:34:26;;;;;;;11.27;7.80;;;13.80;99.90;;;;;;5063167;28;20220;-75
2022/08/08 04:37:10;;;;;;;12.80;8.63;;;13.80;99.90;;;;;;5065295;28;20200;-75
2022/08/08 04:39:37;;;;;;;16.90;8.27;;;13.80;99.90;;;;;;5096058;28;20236;-74
2022/08/08 04:42:25;;;;;;;11.83;8.87;;;13.80;99.90;;;;;;5064121;28;21137;-74
2022/08/08 04:44:56;;;;;;;12.53;7.73;;;13.90;99.90;;;;;;5065682;28;20537;-74
2022/08/08 04:47:24;;;;;;;10.93;7.30;;;13.90;99.90;;;;;;5066001;28;20621;-74
2022/08/08 04:49:52;;;;;;;12.03;8.17;;;13.90;99.90;;;;;;5069132;28;20236;-73
2022/08/08 04:52:27;;;;;;;11.60;7.80;;;13.90;99.90;;;;;;5063554;28;20291;-74
2022/08/08 04:55:02;;;;;;;13.60;7.97;;;14.00;99.90;;;;;;5062968;28;20201;-74
2022/08/08 04:57:31;;;;;;;11.17;7.67;;;14.00;99.90;;;;;;5063830;28;20205;-74
2022/08/08 05:00:00;;;;;;;11.80;7.80;;;14.20;99.90;;;;;;5061947;28;20618;-73
2022/08/08 05:02:28;;;;;;;10.47;8.57;;;14.10;99.90;;;;;;5058040;28;20240;-73
2022/08/08 05:04:57;;;;;;;9.63;7.70;;;14.20;99.90;;;;;;5057462;28;20574;-74
2022/08/08 05:07:26;;;;;;;10.10;7.93;;;14.20;99.90;;;;;;5059505;28;20202;-74
2022/08/08 05:10:08;;;;;;;11.00;7.77;;;14.20;99.90;;;;;;5061061;28;20228;-75
2022/08/08 05:12:40;;;;;;;11.17;8.80;;;14.20;99.90;;;;;;5060862;28;20192;-74
2022/08/08 05:15:26;;;;;;;11.23;7.90;;;14.30;99.90;;;;;;5062606;28;20200;-74
2022/08/08 05:18:13;;;;;;;12.80;7.93;;;14.30;99.90;;;;;;5063753;28;20307;-74
2022/08/08 05:20:41;;;;;;;12.00;7.67;;;14.40;99.90;;;;;;5063354;28;20219;-74
2022/08/08 05:23:16;;;;;;;11.10;7.73;;;14.40;99.90;;;;;;5062241;28;20204;-74
2022/08/08 05:25:43;;;;;;;12.40;8.23;;;14.50;99.90;;;;;;5065408;28;20222;-75
2022/08/08 05:28:12;;;;;;;10.63;7.93;;;14.60;99.90;;;;;;5065073;28;20325;-74
2022/08/08 05:30:40;;;;;;;12.40;8.70;;;14.60;99.90;;;;;;5065288;28;20228;-74
2022/08/08 05:33:13;;;;;;;10.20;8.20;;;14.70;99.90;;;;;;5064770;28;20212;-75
2022/08/08 05:35:45;;;;;;;8.73;7.80;;;14.70;99.90;;;;;;5065732;28;20222;-75
2022/08/08 05:38:21;;;;;;;11.63;8.60;;;14.80;99.90;;;;;;5063965;28;20200;-75
2022/08/08 05:40:59;;;;;;;12.53;8.83;;;14.80;99.90;;;;;;5063953;28;20308;-75
2022/08/08 05:43:29;;;;;;;11.57;7.77;;;14.90;99.90;;;;;;5064921;28;20578;-75
2022/08/08 05:46:16;;;;;;;10.93;7.73;;;15.00;99.90;;;;;;5061812;28;20208;-75
2022/08/08 05:48:43;;;;;;;9.87;8.17;;;15.10;99.90;;;;;;5062420;28;20237;-74
2022/08/08 05:51:18;;;;;;;11.23;7.97;;;15.20;99.90;;;;;;5063639;28;20281;-76
2022/08/08 05:53:46;;;;;;;12.43;8.53;;;15.30;99.90;;;;;;5062057;28;20212;-75
2022/08/08 05:56:38;;;;;;;16.90;10.03;;;15.40;99.90;;;;;;5062953;28;20311;-76
2022/08/08 05:59:19;;;;;;;16.27;8.90;;;15.50;99.90;;;;;;5059450;28;20260;-75
2022/08/08 06:03:09;;;;;;;15.13;8.87;;;15.60;99.90;;;;;;5063787;28;20297;-76
2022/08/08 06:05:10;;;;;;;9.17;6.17;;;;;;;;;;5061021;28;20255;-75
2022/08/08 06:07:57;;;;;;;8.80;5.85;;;17.00;99.90;;;;;;5064987;28;20289;-75
2022/08/08 06:10:38;;;;;;;8.52;6.38;;;18.40;99.90;;;;;;5062748;28;20228;-77
2022/08/08 06:13:07;;;;;;;5.97;5.15;;;19.60;99.90;;;;;;5063761;28;20189;-75
2022/08/08 06:15:37;;;;;;;9.75;5.30;;;20.80;99.90;;;;;;5064746;28;20341;-75
2022/08/08 06:18:20;;;;;;;6.05;4.47;;;22.00;99.90;;;;;;5064983;28;20220;-75
2022/08/08 06:20:51;;;;;;;5.82;4.22;;;23.10;99.90;;;;;;5065032;28;20208;-75
2022/08/08 06:23:24;;;;;;;5.53;4.35;;;23.80;99.90;;;;;;5064672;28;20196;-74
2022/08/08 06:26:11;;;;;;;6.82;3.78;;;24.50;99.90;;;;;;5063764;28;20204;-76
2022/08/08 06:29:09;;;;;;;7.20;4.05;;;25.50;99.90;;;;;;5062481;28;20211;-76
2022/08/08 06:32:02;;;;;;;5.43;3.33;;;26.40;99.90;;;;;;5064031;28;20315;-77
2022/08/08 06:34:38;;;;;;;4.63;3.03;;;27.00;99.90;;;;;;5062489;28;20286;-77
2022/08/08 06:37:12;;;;;;;9.90;4.28;;;27.60;99.90;;;;;;5062213;28;20779;-76
2022/08/08 06:39:55;;;;;;;5.32;3.20;;;28.10;99.90;;;;;;5064612;28;20200;-75
2022/08/08 06:42:24;;;;;;;7.10;3.75;;;28.50;99.90;;;;;;5062931;28;20688;-76
2022/08/08 06:44:54;;;;;;;4.80;2.65;;;28.80;99.90;;;;;;5063773;28;20196;-76
2022/08/08 06:47:21;;;;;;;6.32;3.03;;;29.10;99.90;;;;;;5061619;28;20212;-75
2022/08/08 06:50:00;;;;;;;3.70;3.00;;;29.40;99.90;;;;;;5061370;28;20569;-75
2022/08/08 06:52:31;;;;;;;5.50;2.78;;;29.70;99.90;;;;;;5063931;28;20247;-76
2022/08/08 06:55:00;;;;;;;6.47;3.10;;;29.70;99.60;;;;;;5064130;28;20193;-76
2022/08/08 06:57:27;;;;;;;3.55;2.78;;;29.60;99.20;;;;;;5062742;28;20512;-76
2022/08/08 07:00:10;;;;;;;4.53;2.75;;;29.40;98.40;;;;;;5061647;28;20236;-76
2022/08/08 07:02:45;;;;;;;5.25;3.22;;;29.40;98.40;;;;;;5064241;28;20231;-76
2022/08/08 07:05:18;;;;;;;5.95;3.00;;;29.40;98.30;;;;;;5060591;28;20211;-75
2022/08/08 07:08:16;;;;;;;5.55;2.70;;;29.50;98.20;;;;;;5062794;28;20201;-77
2022/08/08 07:10:48;;;;;;;3.00;2.38;;;29.90;96.20;;;;;;5061040;28;20741;-77
2022/08/08 07:13:17;;;;;;;5.90;2.58;;;29.90;96.40;;;;;;5064043;28;20584;-78
2022/08/08 07:16:08;;;;;;;5.45;2.60;;;30.00;96.10;;;;;;5064131;28;20543;-76
2022/08/08 07:19:04;;;;;;;3.65;2.75;;;29.90;94.70;;;;;;5064611;28;20217;-76
2022/08/08 07:21:55;;;;;;;6.63;3.15;;;29.80;94.80;;;;;;5066121;28;20213;-76
2022/08/08 07:24:43;;;;;;;3.83;2.40;;;29.90;95.20;;;;;;5066081;28;20204;-76
2022/08/08 07:27:14;;;;;;;5.40;2.38;;;30.20;95.00;;;;;;5067080;28;20210;-76
2022/08/08 07:29:44;;;;;;;4.30;2.70;;;30.50;94.30;;;;;;5066273;28;20203;-76
2022/08/08 07:32:31;;;;;;;5.35;2.72;;;30.60;93.70;;;;;;5066857;28;20217;-77
2022/08/08 07:35:04;;;;;;;7.25;2.83;;;30.60;93.30;;;;;;5065739;28;20208;-76
2022/08/08 07:37:34;;;;;;;6.72;2.45;;;30.60;92.80;;;;;;5066978;28;20207;-77
2022/08/08 07:40:21;;;;;;;4.82;2.92;;;30.60;92.70;;;;;;5066259;28;20316;-76
2022/08/08 07:43:00;;;;;;;4.82;2.20;;;30.70;92.60;;;;;;5064146;28;20231;-77
2022/08/08 07:45:26;;;;;;;3.80;2.65;;;30.80;92.50;;;;;;5067452;28;20220;-77
2022/08/08 07:48:02;;;;;;;3.13;2.38;;;30.80;92.10;;;;;;5064470;28;20240;-78
2022/08/08 07:50:32;;;;;;;5.10;2.20;;;30.60;91.90;;;;;;5067552;28;20759;-77
2022/08/08 07:53:27;;;;;;;4.00;2.17;;;30.50;92.20;;;;;;5063095;28;20228;-77
2022/08/08 07:56:16;;;;;;;4.70;2.38;;;30.80;91.90;;;;;;5065676;28;20246;-77
2022/08/08 07:59:04;;;;;;;5.93;2.10;;;30.90;91.90;;;;;;5065692;28;20696;-77
2022/08/08 08:01:35;;;;;;;4.55;1.88;;;31.10;91.30;;;;;;5066671;28;20212;-75
2022/08/08 08:04:28;;;;;;;4.10;1.95;;;31.30;91.00;;;;;;5066488;28;20712;-76
2022/08/08 08:06:59;;;;;;;4.15;2.00;;;31.10;90.70;;;;;;5064325;28;20208;-77
2022/08/08 08:09:32;;;;;;;2.42;1.48;;;30.90;90.30;;;;;;5063384;28;20209;-77
2022/08/08 08:12:02;;;;;;;3.38;1.38;;;30.60;90.20;;;;;;5064719;28;20595;-76
2022/08/08 08:14:44;;;;;;;4.90;1.80;;;30.20;90.90;;;;;;5065898;28;20644;-75
2022/08/08 08:17:18;;;;;;;1.98;1.40;;;30.00;91.20;;;;;;5066491;28;20231;-75
2022/08/08 08:19:48;;;;;;;4.60;1.45;;;30.10;90.80;;;;;;5066837;28;20652;-76
2022/08/08 08:22:21;;;;;;;2.85;1.42;;;30.10;90.90;;;;;;5066928;28;20573;-75
2022/08/08 08:24:59;;;;;;;3.70;1.90;;;30.00;90.90;;;;;;5065429;28;20200;-76
2022/08/08 08:27:34;;;;;;;3.85;1.40;;;30.00;91.40;;;;;;5065161;28;20240;-76
2022/08/08 08:30:01;;;;;;;3.90;1.70;;;30.10;91.00;;;;;;5063460;28;20200;-76
2022/08/08 08:32:28;;;;;;;2.83;1.30;;;30.10;90.50;;;;;;5066301;28;20232;-77
2022/08/08 08:35:03;;;;;;;4.07;1.48;;;30.10;90.60;;;;;;5066000;28;20204;-76
2022/08/08 08:37:32;;;;;;;6.75;1.50;;;30.00;90.60;;;;;;5066554;28;20215;-76
2022/08/08 08:40:18;;;;;;;3.42;1.50;;;30.00;90.60;;;;;;5064286;28;20232;-76
2022/08/08 08:42:48;;;;;;;3.42;1.30;;;30.20;90.30;;;;;;5063254;28;20200;-77
2022/08/08 08:45:17;;;;;;;1.52;1.20;;;30.50;89.70;;;;;;5066197;28;20325;-77
2022/08/08 08:47:53;;;;;;;2.85;1.20;;;30.70;89.40;;;;;;5062874;28;20246;-76
2022/08/08 08:50:26;;;;;;;2.88;1.25;;;30.90;88.90;;;;;;5063895;28;20208;-76
2022/08/08 08:53:06;;;;;;;4.07;1.70;;;31.00;88.20;;;;;;5065318;28;20303;-75
2022/08/08 08:55:56;;;;;;;3.67;1.10;;;31.00;89.00;;;;;;5063558;28;20287;-75
2022/08/08 08:58:42;;;;;;;4.57;1.45;;;31.00;86.80;;;;;;5061940;28;20240;-78
2022/08/08 09:01:22;;;;;;;4.25;1.40;;;31.30;86.60;;;;;;5065616;28;20200;-77
2022/08/08 09:03:50;;;;;;;4.25;1.60;;;31.30;86.60;;;;;;5065163;28;20222;-76
2022/08/08 09:06:27;;;;;;;3.75;1.17;;;31.20;87.20;;;;;;5066231;28;20300;-77
2022/08/08 09:09:22;;;;;;;7.10;1.80;;;31.00;85.90;;;;;;5066091;28;20215;-76
2022/08/08 09:12:08;;;;;;;2.13;1.60;;;30.60;90.50;;;;;;5064075;28;20267;-76
2022/08/08 09:14:37;;;;;;;1.88;1.33;;;30.30;90.30;;;;;;5065873;28;20196;-81
2022/08/08 09:17:12;;;;;;;4.25;1.40;;;29.70;87.40;;;;;;5065146;28;20223;-76
2022/08/08 09:19:46;;;;;;;2.92;1.30;;;29.20;88.00;;;;;;5065288;28;20207;-76
2022/08/08 09:22:36;;;;;;;1.95;1.50;;;28.60;88.00;;;;;;5064000;28;20208;-76
2022/08/08 09:25:07;;;;;;;4.43;1.73;;;27.80;89.80;;;;;;5065077;28;20215;-77
2022/08/08 09:27:36;;;;;;;3.53;1.50;;;27.40;91.00;;;;;;5064478;28;20208;-76
2022/08/08 09:30:25;;;;;;;4.80;1.60;;;27.40;91.90;;;;;;5064913;28;20197;-77
2022/08/08 09:32:56;;;;;;;2.22;1.20;;;27.50;91.60;;;;;;5064667;28;20236;-78
2022/08/08 09:35:46;;;;;;;3.22;1.20;;;27.90;91.60;;;;;;5064942;28;20216;-78
2022/08/08 09:38:51;;;;;;;2.67;1.20;;;28.10;91.20;;;;;;5059934;28;20219;-77
2022/08/08 09:41:35;;;;;;;3.13;1.30;;;28.00;90.30;;;;;;5060667;28;20223;-76
2022/08/08 09:44:49;;;;;;;3.85;1.55;;;27.80;91.10;;;;;;5062568;28;20665;-76
2022/08/08 09:47:18;;;;;;;2.20;1.13;;;27.80;92.30;;;;;;5057660;28;20232;-75
2022/08/08 09:50:16;;;;;;;1.85;1.13;;;28.00;91.50;;;;;;5061847;28;20344;-75
2022/08/08 09:52:52;;;;;;;4.75;1.27;;;28.10;91.10;;;;;;5065306;28;20228;-78
2022/08/08 09:55:29;;;;;;;2.65;1.08;;;28.20;90.70;;;;;;5063726;28;20279;-77
2022/08/08 09:58:18;;;;;;;3.33;1.35;;;28.20;90.80;;;;;;5064562;28;20207;-77
2022/08/08 10:01:09;;;;;;;2.13;1.27;;;28.20;90.50;;;;;;5063446;28;20211;-76
2022/08/08 10:03:57;;;;;;;4.20;1.30;;;28.30;91.00;;;;;;5064625;28;20278;-76
2022/08/08 10:06:31;;;;;;;2.38;1.20;;;28.10;90.30;;;;;;5062371;28;20208;-75
2022/08/08 10:09:03;;;;;;;2.45;1.23;;;27.80;89.80;;;;;;5064986;28;20273;-76
2022/08/08 10:11:36;;;;;;;4.03;1.25;;;27.30;90.50;;;;;;5063830;28;20237;-76
2022/08/08 10:14:58;;;;;;;3.40;1.50;;;27.00;91.10;;;;;;5061658;28;20204;-76
2022/08/08 10:17:26;;;;;;;3.53;1.58;;;26.60;92.00;;;;;;5061875;28;20226;-76
2022/08/08 10:20:16;;;;;;;2.80;1.50;;;26.30;92.20;;;;;;5063847;28;20293;-76
2022/08/08 10:23:16;;;;;;;3.13;1.45;;;26.00;92.30;;;;;;5065370;28;20219;-76
2022/08/08 10:26:03;;;;;;;3.78;1.25;;;26.00;92.80;;;;;;5060586;28;20291;-76
2022/08/08 10:29:04;;;;;;;6.05;1.63;;;26.10;93.10;;;;;;5063346;28;20307;-76
2022/08/08 10:34:23;;;;;;;3.97;1.30;;;26.90;92.60;;;;;;5063654;28;20560;-76
2022/08/08 10:36:55;;;;;;;2.05;1.25;;;27.20;91.90;;;;;;5064160;28;20254;-77
2022/08/08 10:39:27;;;;;;;5.53;1.50;;;27.30;91.70;;;;;;5065352;28;20193;-76
2022/08/08 10:42:10;;;;;;;1.40;1.10;;;27.30;92.10;;;;;;5062231;28;20211;-75
2022/08/08 10:44:42;;;;;;;3.78;1.10;;;27.20;92.20;;;;;;5066836;28;20203;-75
2022/08/08 10:47:15;;;;;;;2.42;1.20;;;27.20;92.10;;;;;;5050014;28;20220;-75
2022/08/08 10:49:50;;;;;;;5.30;1.40;;;27.10;92.10;;;;;;5049176;28;20270;-77
2022/08/08 10:52:41;;;;;;;2.50;1.30;;;26.90;91.40;;;;;;5057728;28;20224;-75
2022/08/08 10:55:14;;;;;;;2.95;1.35;;;26.70;91.40;;;;;;5067664;28;20578;-75
2022/08/08 10:58:03;;;;;;;2.85;1.27;;;26.50;91.40;;;;;;5060697;28;20574;-74
2022/08/08 11:00:32;;;;;;;2.60;1.48;;;26.40;91.80;;;;;;5063311;28;20212;-77
2022/08/08 11:03:17;;;;;;;3.42;1.48;;;26.60;92.60;;;;;;5065148;28;20271;-74
2022/08/08 11:06:02;;;;;;;2.40;1.10;;;26.90;91.90;;;;;;5063737;28;20200;-76
2022/08/08 11:08:30;;;;;;;2.33;1.48;;;27.10;91.70;;;;;;5061746;28;20244;-75
2022/08/08 11:11:09;;;;;;;6.50;1.30;;;27.00;91.20;;;;;;5064131;28;20213;-77
2022/08/08 11:13:59;;;;;;;3.30;1.50;;;26.80;91.20;;;;;;5065311;28;20208;-79
2022/08/08 11:16:31;;;;;;;3.20;1.40;;;26.70;91.30;;;;;;5063607;28;20207;-76
2022/08/08 11:19:02;;;;;;;3.15;1.52;;;26.60;91.70;;;;;;5062113;28;20239;-79
2022/08/08 11:21:40;;;;;;;4.85;1.60;;;26.60;91.40;;;;;;5064613;28;20284;-75
2022/08/08 11:24:08;;;;;;;3.15;1.23;;;26.60;91.50;;;;;;5057417;28;20200;-76
2022/08/08 11:26:39;;;;;;;3.35;1.40;;;26.70;91.50;;;;;;5060579;28;20209;-75
2022/08/08 11:29:25;;;;;;;2.30;1.05;;;26.80;91.90;;;;;;5063255;28;20228;-74
2022/08/08 11:32:13;;;;;;;4.60;1.20;;;27.00;91.70;;;;;;5064833;28;20659;-74
2022/08/08 11:34:44;;;;;;;3.33;1.30;;;27.20;91.10;;;;;;5066867;28;20212;-75
2022/08/08 11:37:32;;;;;;;1.73;1.02;;;27.40;90.60;;;;;;5059564;28;20311;-75
2022/08/08 11:40:20;;;;;;;2.88;1.00;;;27.50;90.40;;;;;;5060079;28;20299;-77
2022/08/08 11:42:54;;;;;;;3.88;1.38;;;27.70;90.20;;;;;;5064168;28;20574;-77
2022/08/08 11:45:22;;;;;;;2.50;1.30;;;27.70;89.90;;;;;;5068460;28;20231;-76
2022/08/08 11:47:50;;;;;;;1.67;1.00;;;27.40;89.50;;;;;;5068162;28;20225;-76
2022/08/08 11:50:31;;;;;;;1.92;0.95;;;27.30;89.90;;;;;;5064992;28;20228;-75
2022/08/08 11:53:01;;;;;;;1.83;1.02;;;27.10;90.10;;;;;;5065335;28;20692;-73
2022/08/08 11:55:34;;;;;;;5.82;1.30;;;27.30;90.50;;;;;;5067031;28;20227;-74
2022/08/08 11:58:06;;;;;;;2.47;1.10;;;27.40;90.30;;;;;;5065528;28;20270;-76
2022/08/08 12:00:52;;;;;;;3.20;1.10;;;27.60;89.90;;;;;;5066151;28;20232;-74
2022/08/08 12:03:19;;;;;;;3.00;1.25;;;27.60;89.90;;;;;;5065668;28;20690;-77
2022/08/08 12:05:47;;;;;;;2.33;1.15;;;27.40;90.20;;;;;;5066556;28;20216;-75
2022/08/08 12:08:14;;;;;;;2.70;1.13;;;27.40;90.40;;;;;;5067524;28;20270;-75
2022/08/08 12:10:49;;;;;;;1.63;1.25;;;27.30;90.50;;;;;;5069148;28;20230;-75
2022/08/08 12:13:24;;;;;;;3.15;1.35;;;27.20;90.70;;;;;;5064929;28;20292;-75
2022/08/08 12:16:19;;;;;;;4.20;1.58;;;27.10;90.50;;;;;;5064994;28;20204;-75
2022/08/08 12:19:00;;;;;;;2.25;1.10;;;27.00;90.60;;;;;;5063666;28;20293;-75
2022/08/08 12:21:33;;;;;;;1.60;1.15;;;26.80;90.70;;;;;;5063881;28;20240;-73
2022/08/08 12:24:22;;;;;;;3.22;1.27;;;27.00;90.90;;;;;;5066579;28;20632;-74
2022/08/08 12:26:54;;;;;;;1.50;1.02;;;27.30;91.00;;;;;;5066281;28;20212;-75
2022/08/08 12:29:35;;;;;;;3.30;1.20;;;27.30;90.60;;;;;;5064636;28;20616;-74
2022/08/08 12:32:15;;;;;;;1.42;1.00;;;27.40;90.40;;;;;;5064939;28;20224;-74
2022/08/08 12:34:57;;;;;;;2.70;1.20;;;27.30;90.40;;;;;;5063215;28;20654;-74
2022/08/08 12:37:44;;;;;;;2.53;1.00;;;27.20;90.50;;;;;;5052969;28;20265;-74
2022/08/08 12:40:37;;;;;;;2.05;1.30;;;27.00;90.30;;;;;;5062371;28;20203;-74
2022/08/08 12:43:31;;;;;;;1.73;0.80;;;27.00;90.40;;;;;;5052984;28;20228;-75
2022/08/08 12:46:15;;;;;;;2.63;0.95;;;27.00;90.10;;;;;;5064023;28;20201;-72
2022/08/08 12:48:55;;;;;;;2.38;1.10;;;27.00;89.50;;;;;;5063991;28;20631;-75
2022/08/08 12:51:44;;;;;;;2.45;1.02;;;27.00;90.20;;;;;;5064921;28;20221;-75
2022/08/08 12:54:26;;;;;;;2.90;1.05;;;27.10;90.70;;;;;;5051948;28;20208;-75
2022/08/08 12:56:54;;;;;;;1.38;1.00;;;27.40;90.60;;;;;;5061269;28;20204;-75
2022/08/08 12:59:28;;;;;;;1.13;0.88;;;27.60;90.40;;;;;;5066107;28;20855;-74
2022/08/08 13:02:26;;;;;;;3.03;1.08;;;27.50;90.10;;;;;;5061809;28;20216;-75
2022/08/08 13:04:57;;;;;;;2.72;0.90;;;27.20;90.10;;;;;;5066092;28;20299;-74
2022/08/08 13:07:38;;;;;;;2.50;1.00;;;26.90;90.30;;;;;;5067250;28;20641;-75
2022/08/08 13:10:34;;;;;;;1.63;1.02;;;26.70;90.60;;;;;;5059967;28;20311;-73
2022/08/08 13:13:27;;;;;;;2.30;1.13;;;26.60;91.00;;;;;;5067047;28;20226;-73
2022/08/08 13:16:22;;;;;;;2.83;1.40;;;26.60;91.40;;;;;;5055541;28;20369;-72
2022/08/08 13:18:55;;;;;;;3.08;1.10;;;26.60;91.10;;;;;;5060651;28;20247;-73
2022/08/08 13:21:45;;;;;;;3.47;1.10;;;26.60;91.40;;;;;;5085852;27;20747;-71
2022/08/08 13:24:34;;;;;;;3.70;2.70;;;26.70;91.00;;;;;;5064426;28;20287;-75
2022/08/08 13:27:18;;;;;;;10.30;8.70;;;26.80;91.00;;;;;;5070309;28;20296;-75
2022/08/08 13:29:53;;;;;;;2.88;2.10;;;26.90;90.80;;;;;;5059674;28;20263;-76
2022/08/08 13:32:21;;;;;;;2.10;1.67;;;27.00;91.50;;;;;;5064657;28;20312;-73
2022/08/08 13:34:56;;;;;;;4.15;1.90;;;27.10;91.80;;;;;;5070336;28;20228;-75
2022/08/08 13:37:26;;;;;;;4.90;2.25;;;27.10;91.80;;;;;;5065860;28;20210;-74
2022/08/08 13:40:15;;;;;;;3.70;1.58;;;27.10;91.60;;;;;;5064668;28;20228;-76
2022/08/08 13:42:44;;;;;;;4.97;2.50;;;27.00;91.60;;;;;;5066217;28;20222;-76
2022/08/08 13:45:11;;;;;;;2.92;1.83;;;27.00;91.80;;;;;;5062856;28;20200;-76
2022/08/08 13:47:40;;;;;;;4.40;1.80;;;27.00;91.80;;;;;;5067136;28;20985;-74
2022/08/08 13:50:21;;;;;;;3.10;1.10;;;26.90;92.40;;;;;;5062712;28;20196;-75
2022/08/08 13:53:07;;;;;;;3.20;1.25;;;26.90;92.40;;;;;;5063094;28;20352;-74
2022/08/08 13:55:59;;;;;;;9.68;4.13;;;26.80;92.40;;;;;;5065015;28;20201;-73
2022/08/08 13:58:28;;;;;;;7.65;4.22;;;26.70;92.90;;;;;;5060122;28;20215;-75
2022/08/08 14:00:55;;;;;;;3.00;1.60;;;26.70;92.90;;;;;;5067363;28;20196;-75
2022/08/08 14:03:26;;;;;;;2.13;1.40;;;26.70;92.90;;;;;;5063414;28;20330;-75
2022/08/08 14:06:13;;;;;;;3.50;1.55;;;26.60;93.00;;;;;;5067396;28;20196;-74
2022/08/08 14:08:59;;;;;;;2.13;1.20;;;26.50;92.90;;;;;;5066753;28;20200;-76
2022/08/08 14:11:46;;;;;;;3.08;2.03;;;26.50;92.70;;;;;;5064191;28;20208;-76